Time;durP1;ratioP1;P1;durP2;ratioP2;P2;SDS_P1;SDS_P2;PMS_P1;PMS_P2;Temp;Humidity;BMP_temperature;BMP_pressure;BME280_temperature;BME280_humidity;BME280_pressure;Samples;Min_cycle;Max_cycle;Signal;HPM_P1;HPM_P2
2021/10/04 00:00:51;;;;;;;5.35;0.60;;;;;;;20.15;49.21;101047.53;5057739;28;20094;-62
2021/10/04 00:03:16;;;;;;;0.75;0.50;;;;;;;20.16;48.71;101051.94;5077161;28;20024;-63
2021/10/04 00:05:42;;;;;;;2.67;0.82;;;;;;;20.13;48.57;101049.59;5076776;28;20036;-62
2021/10/04 00:08:10;;;;;;;0.68;0.30;;;;;;;20.14;49.03;101056.72;5076285;28;20028;-62
2021/10/04 00:10:36;;;;;;;0.70;0.65;;;;;;;20.12;48.32;101050.63;5076714;28;20032;-62
2021/10/04 00:13:01;;;;;;;3.67;0.95;;;;;;;20.18;48.93;101058.03;5085469;28;20171;-62
2021/10/04 00:15:29;;;;;;;1.20;0.47;;;;;;;20.21;48.26;101051.41;5076489;28;20031;-63
2021/10/04 00:17:55;;;;;;;2.90;0.40;;;;;;;20.21;48.09;101065.81;5076366;28;20028;-62
2021/10/04 00:20:20;;;;;;;1.52;0.30;;;;;;;20.20;48.82;101058.72;5076322;28;20115;-62
2021/10/04 00:22:46;;;;;;;1.88;0.75;;;;;;;20.22;48.48;101063.94;5076172;28;20017;-63
2021/10/04 00:25:12;;;;;;;2.60;0.40;;;;;;;20.20;48.42;101064.16;5091725;28;20035;-63
2021/10/04 00:27:38;;;;;;;1.75;0.40;;;;;;;20.21;48.51;101068.53;5091544;28;20473;-63
2021/10/04 00:30:06;;;;;;;0.52;0.32;;;;;;;20.20;49.16;101066.88;5076192;28;20074;-62
2021/10/04 00:32:40;;;;;;;2.40;0.43;;;;;;;20.22;48.86;101070.25;5058213;28;20028;-63
2021/10/04 00:35:06;;;;;;;3.42;1.23;;;;;;;20.22;48.38;101080.28;5057956;28;20035;-63
2021/10/04 00:37:32;;;;;;;1.65;0.50;;;;;;;20.20;48.29;101071.47;5075251;28;20075;-63
2021/10/04 00:39:57;;;;;;;0.52;0.45;;;;;;;20.20;48.76;101077.75;5075517;28;20028;-62
2021/10/04 00:42:23;;;;;;;3.22;0.60;;;;;;;20.22;48.61;101077.53;5076175;28;20031;-63
2021/10/04 00:44:52;;;;;;;1.02;0.55;;;;;;;20.19;48.46;101072.47;5057755;28;20073;-63
2021/10/04 00:47:18;;;;;;;0.82;0.60;;;;;;;20.24;48.16;101087.25;5075981;28;20020;-63
2021/10/04 00:49:44;;;;;;;0.73;0.40;;;;;;;20.24;48.35;101095.41;5075354;28;20059;-62
2021/10/04 00:52:09;;;;;;;1.85;0.40;;;;;;;20.26;48.22;101098.81;5075575;28;20021;-63
2021/10/04 00:54:36;;;;;;;3.10;0.85;;;;;;;20.25;48.82;101098.97;5075443;28;20028;-62
2021/10/04 00:57:01;;;;;;;1.25;0.77;;;;;;;20.24;48.22;101095.41;5075436;28;20020;-62
2021/10/04 00:59:26;;;;;;;2.35;0.77;;;;;;;20.24;48.99;101100.84;5075598;28;20047;-62
2021/10/04 01:01:52;;;;;;;2.53;0.80;;;;;;;20.24;48.67;101089.97;5057766;28;20127;-63
2021/10/04 01:04:17;;;;;;;1.45;0.50;;;;;;;20.24;48.05;101079.09;5075571;28;20127;-62
2021/10/04 01:06:43;;;;;;;2.10;0.90;;;;;;;20.28;48.48;101085.84;5057572;28;20028;-63
2021/10/04 01:09:08;;;;;;;1.15;0.60;;;;;;;20.30;48.52;101083.78;5091002;28;20031;-63
2021/10/04 01:11:33;;;;;;;0.88;0.45;;;;;;;20.29;48.52;101081.25;5041024;28;20540;-62
2021/10/04 01:13:59;;;;;;;1.92;0.90;;;;;;;20.32;48.33;101091.78;5074605;28;20020;-62
2021/10/04 01:16:25;;;;;;;1.77;0.60;;;;;;;20.19;47.78;101070.59;5074638;28;20076;-63
2021/10/04 01:18:51;;;;;;;2.47;0.80;;;;;;;20.26;48.15;101085.22;5058525;28;20047;-62
2021/10/04 01:21:16;;;;;;;0.90;0.60;;;;;;;20.26;48.22;101085.22;5058458;28;20021;-62
2021/10/04 01:23:42;;;;;;;1.38;0.60;;;;;;;20.27;48.20;101084.16;5057169;28;20024;-62
2021/10/04 01:26:07;;;;;;;1.45;0.50;;;;;;;20.28;48.32;101072.25;5075063;28;20052;-62
2021/10/04 01:28:33;;;;;;;1.55;0.43;;;;;;;20.29;48.60;101071.22;5074728;28;20026;-62
2021/10/04 01:30:58;;;;;;;1.25;0.73;;;;;;;20.22;48.08;101059.34;5057017;28;20025;-62
2021/10/04 01:33:24;;;;;;;4.68;0.57;;;;;;;20.32;47.97;101089.88;5074688;28;20493;-63
2021/10/04 01:35:49;;;;;;;3.97;0.60;;;;;;;20.27;48.31;101084.16;5074360;28;20060;-63
2021/10/04 01:38:15;;;;;;;5.30;0.50;;;;;;;20.33;48.29;101093.44;5074888;28;20099;-64
2021/10/04 01:40:43;;;;;;;0.35;0.30;;;;;;;20.32;47.97;101087.16;5074984;28;20024;-62
2021/10/04 01:43:10;;;;;;;0.63;0.30;;;;;;;20.29;48.26;101087.56;5075004;28;20453;-62
2021/10/04 01:45:36;;;;;;;2.20;0.60;;;;;;;20.35;48.15;101096.84;5075057;28;20105;-62
2021/10/04 01:48:01;;;;;;;2.20;1.20;;;;;;;20.35;48.19;101099.56;5073983;28;20064;-63
2021/10/04 01:50:33;;;;;;;2.13;0.52;;;;;;;20.36;47.94;101094.94;5073211;28;20070;-62
2021/10/04 01:52:58;;;;;;;1.15;0.40;;;;;;;20.33;47.64;101094.31;5074322;28;20405;-63
2021/10/04 01:55:24;;;;;;;3.30;0.50;;;;;;;20.28;48.30;101094.03;5074005;28;20021;-63
2021/10/04 01:57:49;;;;;;;0.20;0.20;;;;;;;20.26;48.18;101093.38;5056984;28;20016;-62
2021/10/04 02:00:18;;;;;;;0.63;0.40;;;;;;;20.29;48.21;101103.88;5074753;28;20021;-62
2021/10/04 02:02:45;;;;;;;1.35;0.50;;;;;;;20.26;47.99;101104.25;5075126;28;20021;-62
2021/10/04 02:05:11;;;;;;;2.47;0.55;;;;;;;20.25;48.34;101104.41;5057326;28;20028;-62
2021/10/04 02:07:37;;;;;;;2.85;0.30;;;;;;;20.24;47.89;101098.13;5074767;28;20035;-62
2021/10/04 02:10:11;;;;;;;2.60;0.50;;;;;;;20.24;47.93;101098.13;5074878;28;20035;-62
2021/10/04 02:12:37;;;;;;;1.40;0.60;;;;;;;20.20;47.83;101093.22;5056609;28;20512;-62
2021/10/04 02:15:03;;;;;;;2.17;0.40;;;;;;;20.26;47.76;101108.84;5074598;28;20028;-62
2021/10/04 02:17:31;;;;;;;2.40;0.57;;;;;;;20.26;48.15;101093.38;5057194;28;20459;-63
2021/10/04 02:19:56;;;;;;;2.88;0.50;;;;;;;20.24;47.82;101100.84;5074497;28;20024;-62
2021/10/04 02:22:22;;;;;;;3.85;0.82;;;;;;;20.26;48.29;101104.25;5075129;28;20051;-62
2021/10/04 02:24:47;;;;;;;2.35;0.50;;;;;;;20.24;47.88;101100.84;5074291;28;20035;-62
2021/10/04 02:27:13;;;;;;;1.70;0.60;;;;;;;20.24;47.82;101099.97;5074065;28;20028;-62
2021/10/04 02:29:38;;;;;;;3.47;1.17;;;;;;;20.22;48.64;101100.16;5056725;28;20028;-62
2021/10/04 02:32:05;;;;;;;2.63;0.65;;;;;;;20.22;48.54;101102.03;5073712;28;20464;-63
2021/10/04 02:34:30;;;;;;;1.67;0.88;;;;;;;20.18;48.61;101098.84;5074537;28;20039;-62
2021/10/04 02:36:55;;;;;;;2.28;0.65;;;;;;;20.17;48.83;101096.31;5056618;28;20028;-62
2021/10/04 02:39:21;;;;;;;0.70;0.60;;;;;;;20.18;48.55;101112.44;5074590;28;20028;-63
2021/10/04 02:41:46;;;;;;;5.90;0.88;;;;;;;20.16;48.70;101109.06;5074264;28;20560;-62
2021/10/04 02:44:11;;;;;;;2.03;0.57;;;;;;;20.16;48.70;101098.19;5074421;28;20429;-62
2021/10/04 02:46:37;;;;;;;1.80;0.68;;;;;;;20.15;48.76;101096.50;5074134;28;20029;-62
2021/10/04 02:49:02;;;;;;;2.30;0.65;;;;;;;20.09;48.68;101086.34;5074353;28;20028;-62
2021/10/04 02:51:28;;;;;;;1.38;0.80;;;;;;;20.16;48.22;101102.78;5074331;28;20492;-62
2021/10/04 02:53:53;;;;;;;4.35;1.00;;;;;;;20.16;48.23;101100.91;5074532;28;20039;-63
2021/10/04 02:56:18;;;;;;;4.93;0.70;;;;;;;20.17;48.55;101097.16;5073828;28;20078;-63
2021/10/04 02:58:44;;;;;;;3.63;1.38;;;;;;;20.17;48.17;101102.59;5074272;28;20027;-62
2021/10/04 03:01:09;;;;;;;3.83;0.88;;;;;;;20.17;48.00;101110.75;5077618;28;20120;-62
2021/10/04 03:03:34;;;;;;;7.18;1.08;;;;;;;20.13;48.18;101109.44;5077519;28;20419;-62
2021/10/04 03:06:00;;;;;;;3.13;1.00;;;;;;;20.13;48.36;101112.16;5077086;28;20107;-62
2021/10/04 03:08:25;;;;;;;1.40;0.75;;;;;;;20.16;48.44;101125.38;5076689;28;20047;-63
2021/10/04 03:10:51;;;;;;;0.90;0.65;;;;;;;20.15;48.31;101129.16;5077638;28;20036;-62
2021/10/04 03:13:16;;;;;;;2.60;0.50;;;;;;;20.17;48.23;101131.69;5077409;28;20049;-62
2021/10/04 03:15:42;;;;;;;5.28;1.45;;;;;;;20.16;48.46;101130.81;5059319;28;20358;-63
2021/10/04 03:18:07;;;;;;;6.22;0.90;;;;;;;20.14;48.35;101132.88;5077702;28;20028;-62
2021/10/04 03:20:34;;;;;;;5.63;1.52;;;;;;;20.14;48.19;101138.34;5077134;28;20070;-63
2021/10/04 03:22:59;;;;;;;4.15;0.73;;;;;;;20.16;48.23;101143.56;5077438;28;20384;-62
2021/10/04 03:25:25;;;;;;;1.73;0.82;;;;;;;20.12;48.28;101129.53;5077048;28;20029;-62
2021/10/04 03:27:52;;;;;;;6.82;0.90;;;;;;;20.15;48.48;101134.59;5059335;28;20056;-63
2021/10/04 03:30:18;;;;;;;1.88;0.82;;;;;;;20.16;47.98;101147.16;5076941;28;20103;-62
2021/10/04 03:32:46;;;;;;;2.92;0.73;;;;;;;20.13;47.84;101146.66;5076610;28;20151;-62
2021/10/04 03:35:11;;;;;;;1.50;0.80;;;;;;;20.16;48.61;101155.31;5059295;28;20028;-63
2021/10/04 03:37:37;;;;;;;4.30;1.08;;;;;;;20.12;47.89;101151.28;5077119;28;20027;-62
2021/10/04 03:40:04;;;;;;;2.22;0.70;;;;;;;20.14;48.04;101156.53;5075737;28;20056;-63
2021/10/04 03:42:30;;;;;;;1.25;0.73;;;;;;;20.16;47.78;101157.19;5075383;28;20107;-62
2021/10/04 03:44:55;;;;;;;3.50;0.80;;;;;;;20.18;48.37;101166.84;5059180;28;20067;-62
2021/10/04 03:47:20;;;;;;;1.88;0.60;;;;;;;20.14;47.59;101154.66;5076699;28;20043;-63
2021/10/04 03:49:46;;;;;;;1.83;0.90;;;;;;;20.19;47.62;101160.38;5076378;28;20028;-62
2021/10/04 03:52:11;;;;;;;2.00;0.38;;;;;;;20.17;48.18;101159.72;5076475;28;20016;-62
2021/10/04 03:54:36;;;;;;;3.67;1.08;;;;;;;20.16;48.25;101157.19;5074853;28;20032;-62
2021/10/04 03:57:02;;;;;;;1.67;0.82;;;;;;;20.14;47.84;101162.81;5076048;28;20510;-62
2021/10/04 03:59:27;;;;;;;3.03;0.80;;;;;;;20.15;48.34;101163.66;5076816;28;20028;-63
2021/10/04 04:01:53;;;;;;;3.70;0.60;;;;;;;20.12;47.96;101177.63;5076742;28;20024;-63
2021/10/04 04:04:18;;;;;;;11.77;0.90;;;;;;;20.12;47.71;101178.47;5076906;28;20108;-62
2021/10/04 04:06:43;;;;;;;4.68;1.33;;;;;;;20.10;47.90;101185.13;5076147;28;20105;-62
2021/10/04 04:09:09;;;;;;;2.45;0.52;;;;;;;20.12;47.74;101181.19;5076596;28;20029;-63
2021/10/04 04:11:35;;;;;;;1.30;0.90;;;;;;;20.12;47.80;101169.47;5076711;28;20055;-63
2021/10/04 04:14:00;;;;;;;8.05;1.02;;;;;;;20.11;48.46;101165.91;5077125;28;20071;-63
2021/10/04 04:16:26;;;;;;;2.70;0.70;;;;;;;20.13;48.07;101162.97;5059244;28;20032;-62
2021/10/04 04:18:51;;;;;;;3.30;0.50;;;;;;;20.15;47.83;101156.34;5076380;28;20048;-63
2021/10/04 04:21:17;;;;;;;5.35;1.00;;;;;;;20.18;47.80;101161.41;5076542;28;20073;-63
2021/10/04 04:23:42;;;;;;;2.38;0.80;;;;;;;20.15;47.86;101161.78;5075312;28;20052;-62
2021/10/04 04:26:08;;;;;;;4.35;0.80;;;;;;;20.17;48.03;101169.75;5076230;28;20032;-63
2021/10/04 04:28:33;;;;;;;0.77;0.43;;;;;;;20.11;47.81;101165.03;5058873;28;20449;-62
2021/10/04 04:30:59;;;;;;;1.33;0.60;;;;;;;20.14;48.05;101170.97;5059071;28;20031;-62
2021/10/04 04:33:25;;;;;;;1.27;0.60;;;;;;;20.12;47.83;101183.91;5041777;28;20025;-62
2021/10/04 04:35:50;;;;;;;1.88;0.77;;;;;;;20.10;47.80;101175.06;5075121;28;20158;-62
2021/10/04 04:38:15;;;;;;;2.25;1.08;;;;;;;20.08;47.82;101174.41;5075616;28;20028;-62
2021/10/04 04:40:41;;;;;;;3.40;0.77;;;;;;;20.12;47.56;101188.50;5075552;28;20021;-63
2021/10/04 04:43:06;;;;;;;3.55;0.90;;;;;;;20.08;47.44;101193.47;5075578;28;20056;-63
2021/10/04 04:45:32;;;;;;;7.22;0.70;;;;;;;20.09;47.83;101188.88;5075701;28;20020;-62
2021/10/04 04:47:57;;;;;;;4.03;0.95;;;;;;;20.10;47.51;101183.22;5057835;28;20025;-62
2021/10/04 04:50:23;;;;;;;1.45;0.80;;;;;;;20.09;47.29;101181.56;5074641;28;20028;-62
2021/10/04 04:52:48;;;;;;;1.10;0.80;;;;;;;20.11;47.39;101187.66;5057576;28;20020;-63
2021/10/04 04:55:13;;;;;;;4.18;1.05;;;;;;;20.08;47.32;101188.03;5075182;28;20100;-63
2021/10/04 04:57:39;;;;;;;2.75;1.00;;;;;;;20.09;47.77;101195.16;5075040;28;20078;-62
2021/10/04 05:00:07;;;;;;;1.55;1.25;;;;;;;20.09;47.39;101205.19;5075346;28;20028;-63
2021/10/04 05:02:36;;;;;;;3.78;1.15;;;;;;;20.08;46.84;101204.34;5075564;28;20032;-62
2021/10/04 05:05:08;;;;;;;2.53;1.20;;;;;;;20.10;47.97;101196.00;5075371;28;20031;-62
2021/10/04 05:07:34;;;;;;;3.97;0.85;;;;;;;20.10;47.97;101194.13;5057393;28;20025;-63
2021/10/04 05:10:00;;;;;;;1.65;0.70;;;;;;;20.10;47.17;101205.00;5057051;28;20020;-62
2021/10/04 05:12:25;;;;;;;3.20;0.68;;;;;;;20.07;47.84;101201.81;5074461;28;20055;-62
2021/10/04 05:14:50;;;;;;;9.90;1.35;;;;;;;20.09;47.44;101210.63;5075112;28;20481;-63
2021/10/04 05:17:16;;;;;;;2.10;0.80;;;;;;;20.07;47.42;101212.69;5075163;28;20025;-63
2021/10/04 05:19:42;;;;;;;1.20;0.73;;;;;;;20.09;47.24;101227.81;5075204;28;20027;-62
2021/10/04 05:22:07;;;;;;;2.95;0.85;;;;;;;20.02;47.39;101215.94;5074479;28;20103;-63
2021/10/04 05:24:32;;;;;;;1.30;0.57;;;;;;;20.03;47.33;101214.06;5075019;28;20603;-63
2021/10/04 05:26:58;;;;;;;1.38;0.80;;;;;;;20.02;48.05;101207.78;5057007;28;20020;-63
2021/10/04 05:29:24;;;;;;;4.28;0.70;;;;;;;20.02;47.90;101207.78;5074890;28;20078;-63
2021/10/04 05:31:49;;;;;;;4.45;0.75;;;;;;;19.97;47.53;101204.75;5074274;28;20027;-63
2021/10/04 05:34:14;;;;;;;1.63;0.80;;;;;;;19.93;47.74;101206.16;5074225;28;20020;-63
2021/10/04 05:36:40;;;;;;;5.00;0.80;;;;;;;19.97;48.21;101212.91;5057289;28;20044;-63
2021/10/04 05:39:05;;;;;;;3.60;1.00;;;;;;;19.96;47.98;101213.13;5075602;28;20040;-63
2021/10/04 05:41:31;;;;;;;3.15;0.70;;;;;;;19.97;47.98;101225.66;5076306;28;20431;-63
2021/10/04 05:43:56;;;;;;;4.90;1.10;;;;;;;19.97;47.28;101222.94;5076366;28;20453;-63
2021/10/04 05:46:22;;;;;;;3.40;0.60;;;;;;;20.00;47.43;101228.88;5076362;28;20052;-63
2021/10/04 05:48:47;;;;;;;2.67;0.90;;;;;;;20.02;47.52;101231.41;5077100;28;20028;-63
2021/10/04 05:51:12;;;;;;;2.30;0.63;;;;;;;20.01;47.73;101236.03;5076080;28;20028;-62
2021/10/04 05:53:38;;;;;;;1.15;0.47;;;;;;;20.01;47.95;101251.50;5075527;28;20031;-63
2021/10/04 05:56:04;;;;;;;0.95;0.65;;;;;;;20.02;47.17;101259.44;5076011;28;20440;-62
2021/10/04 05:58:29;;;;;;;1.23;0.40;;;;;;;20.03;48.03;101288.34;5075202;28;20032;-63
2021/10/04 06:00:55;;;;;;;2.60;0.70;;;;;;;20.03;47.64;101288.34;5057285;28;20020;-62
2021/10/04 06:03:20;;;;;;;2.90;0.60;;;;;;;20.02;48.04;101281.22;5057796;28;20032;-62
2021/10/04 06:05:45;;;;;;;1.42;0.50;;;;;;;20.06;47.62;101293.44;5074764;28;20053;-62
2021/10/04 06:08:11;;;;;;;1.38;0.40;;;;;;;20.02;47.75;101292.09;5057555;28;20063;-62
2021/10/04 06:10:36;;;;;;;3.55;0.68;;;;;;;20.03;47.59;101288.34;5076621;28;20047;-62
2021/10/04 06:13:02;;;;;;;1.23;0.43;;;;;;;20.04;47.62;101300.09;5086552;28;20052;-63
2021/10/04 06:15:28;;;;;;;1.38;0.40;;;;;;;20.01;47.68;101301.28;5077370;28;20024;-62
2021/10/04 06:17:54;;;;;;;0.93;0.50;;;;;;;20.04;47.46;101306.38;5095286;28;20043;-62
2021/10/04 06:20:19;;;;;;;3.10;0.47;;;;;;;20.01;47.47;101295.84;5060461;28;20020;-62
2021/10/04 06:22:45;;;;;;;0.73;0.30;;;;;;;20.01;47.69;101304.03;5095115;28;20091;-63
2021/10/04 06:25:12;;;;;;;0.63;0.28;;;;;;;20.00;47.71;101307.75;5095520;28;20031;-62
2021/10/04 06:27:37;;;;;;;2.90;0.47;;;;;;;19.98;47.35;101312.53;5095538;28;20020;-62
2021/10/04 06:30:04;;;;;;;1.98;0.50;;;;;;;19.97;47.15;101310.81;5095310;28;20452;-62
2021/10/04 06:32:29;;;;;;;1.63;0.63;;;;;;;19.95;47.49;101307.44;5095775;28;20030;-62
2021/10/04 06:34:55;;;;;;;2.92;0.40;;;;;;;19.91;47.40;101306.09;5097812;28;20110;-62
2021/10/04 06:37:20;;;;;;;2.72;0.30;;;;;;;19.92;47.41;101307.81;5099723;28;20058;-62
2021/10/04 06:39:46;;;;;;;0.85;0.30;;;;;;;19.93;46.91;101311.38;5099522;28;20468;-62
2021/10/04 06:42:11;;;;;;;10.77;0.70;;;;;;;19.91;47.52;101313.41;5098748;28;20039;-62
2021/10/04 06:44:37;;;;;;;0.80;0.38;;;;;;;19.95;47.24;101318.31;5098105;28;20357;-63
2021/10/04 06:47:02;;;;;;;2.75;0.30;;;;;;;19.97;47.26;101327.16;5099537;28;20024;-63
2021/10/04 06:49:28;;;;;;;3.53;0.45;;;;;;;20.03;47.42;101321.00;5097942;28;20024;-63
2021/10/04 06:51:53;;;;;;;0.20;0.20;;;;;;;20.04;47.58;101300.09;5099627;28;20028;-62
2021/10/04 06:54:19;;;;;;;1.63;0.40;;;;;;;20.06;47.17;101304.31;5098409;28;20395;-63
2021/10/04 06:56:44;;;;;;;1.10;0.30;;;;;;;20.12;47.01;101308.19;5098835;28;20032;-62
2021/10/04 06:59:09;;;;;;;0.55;0.20;;;;;;;20.14;47.65;101311.56;5098881;28;20030;-63
2021/10/04 07:01:35;;;;;;;1.25;0.73;;;;;;;20.17;47.16;101306.63;5098647;28;20027;-62
2021/10/04 07:04:04;;;;;;;1.40;0.28;;;;;;;20.18;47.41;101308.31;5098061;28;20051;-63
2021/10/04 07:06:30;;;;;;;3.38;0.40;;;;;;;20.20;46.75;101317.16;5097627;28;20024;-62
2021/10/04 07:08:55;;;;;;;1.02;0.30;;;;;;;20.19;47.04;101315.44;5097557;28;20073;-62
2021/10/04 07:11:21;;;;;;;4.18;0.40;;;;;;;20.22;47.33;101331.41;5098276;28;20112;-62
2021/10/04 07:13:48;;;;;;;1.23;0.40;;;;;;;20.22;47.37;101320.53;5062041;28;20048;-62
2021/10/04 07:16:14;;;;;;;0.65;0.45;;;;;;;20.25;46.86;101325.66;5076037;28;20024;-62
2021/10/04 07:18:41;;;;;;;2.83;1.23;;;;;;;20.26;46.77;101338.25;5076307;28;20028;-62
2021/10/04 07:21:07;;;;;;;1.77;0.47;;;;;;;20.23;46.41;101341.28;5077085;28;20495;-62
2021/10/04 07:23:32;;;;;;;1.50;0.75;;;;;;;20.22;46.70;101342.31;5059055;28;20050;-62
2021/10/04 07:25:57;;;;;;;1.80;0.65;;;;;;;20.19;47.05;101331.78;5059264;28;20393;-62
2021/10/04 07:28:23;;;;;;;3.90;0.38;;;;;;;20.24;46.40;101344.81;5059357;28;20024;-62
2021/10/04 07:30:48;;;;;;;2.08;0.52;;;;;;;20.26;46.82;101342.84;5077079;28;20029;-62
2021/10/04 07:33:14;;;;;;;0.82;0.50;;;;;;;20.27;46.44;101350.81;5076463;28;20112;-62
2021/10/04 07:35:39;;;;;;;0.95;0.47;;;;;;;20.28;46.81;101336.19;5077064;28;20026;-62
2021/10/04 07:38:05;;;;;;;6.13;0.90;;;;;;;20.37;46.79;101347.88;5075814;28;20028;-62
2021/10/04 07:40:30;;;;;;;0.55;0.20;;;;;;;20.43;46.16;101343.56;5076691;28;20095;-62
2021/10/04 07:42:55;;;;;;;2.40;0.40;;;;;;;20.46;46.83;101362.28;5076599;28;20033;-62
2021/10/04 07:45:21;;;;;;;1.08;0.50;;;;;;;20.47;46.74;101350.34;5075709;28;20521;-62
2021/10/04 07:47:46;;;;;;;3.60;0.40;;;;;;;20.48;46.83;101352.03;5076782;28;20024;-62
2021/10/04 07:50:14;;;;;;;1.05;0.40;;;;;;;20.52;46.47;101359.66;5077007;28;20021;-62
2021/10/04 07:52:41;;;;;;;2.08;0.50;;;;;;;20.56;46.89;101343.81;5075773;28;20025;-62
2021/10/04 07:55:07;;;;;;;3.20;0.40;;;;;;;20.55;46.47;101348.41;5076579;28;20024;-62
2021/10/04 07:57:33;;;;;;;0.38;0.30;;;;;;;20.56;45.90;101331.06;5075893;28;20040;-62
2021/10/04 07:59:59;;;;;;;0.52;0.30;;;;;;;20.65;46.70;101338.13;5075997;28;20039;-61
2021/10/04 08:02:24;;;;;;;1.48;0.50;;;;;;;20.68;46.03;101342.38;5076733;28;20026;-61
2021/10/04 08:04:49;;;;;;;0.85;0.32;;;;;;;20.70;46.39;101343.03;5075172;28;20075;-61
2021/10/04 08:07:15;;;;;;;2.03;0.45;;;;;;;20.71;46.57;101336.56;5076562;28;20024;-61
2021/10/04 08:09:40;;;;;;;0.25;0.20;;;;;;;20.72;46.20;101340.97;5076131;28;20033;-61
2021/10/04 08:12:05;;;;;;;1.48;0.50;;;;;;;20.80;46.77;101335.44;5076075;28;20056;-61
2021/10/04 08:14:31;;;;;;;2.53;0.75;;;;;;;20.81;46.49;101346.16;5076308;28;20029;-61
2021/10/04 08:16:57;;;;;;;1.42;0.50;;;;;;;20.83;46.40;101340.53;5075834;28;20025;-62
2021/10/04 08:19:22;;;;;;;1.20;0.32;;;;;;;20.87;46.51;101344.59;5076736;28;20028;-61
2021/10/04 08:21:48;;;;;;;0.63;0.25;;;;;;;20.91;46.30;101351.34;5076069;28;20094;-61
2021/10/04 08:24:14;;;;;;;11.07;0.90;;;;;;;20.88;46.31;101355.28;5057917;28;20051;-61
2021/10/04 08:26:40;;;;;;;2.22;1.35;;;;;;;20.88;45.73;101357.19;5058162;28;20037;-61
2021/10/04 08:29:05;;;;;;;3.33;0.85;;;;;;;20.85;46.26;101346.66;5074711;28;20111;-61
2021/10/04 08:31:32;;;;;;;2.08;0.38;;;;;;;20.88;46.10;101338.94;5074343;28;20104;-61
2021/10/04 08:33:59;;;;;;;2.33;1.10;;;;;;;20.88;46.51;101332.69;5075684;28;20020;-61
2021/10/04 08:36:25;;;;;;;2.33;1.20;;;;;;;21.00;46.32;101347.53;5075616;28;20461;-61
2021/10/04 08:38:50;;;;;;;0.57;0.45;;;;;;;20.99;46.18;101345.84;5074911;28;20025;-61
2021/10/04 08:41:20;;;;;;;6.53;1.52;;;;;;;21.03;45.86;101351.75;5057387;28;20024;-61
2021/10/04 08:43:48;;;;;;;2.63;1.00;;;;;;;21.03;46.00;101347.16;5057558;28;20051;-61
2021/10/04 08:46:14;;;;;;;2.83;0.60;;;;;;;21.12;46.32;101357.00;5075067;28;20047;-62
2021/10/04 08:48:40;;;;;;;1.52;0.85;;;;;;;21.24;45.84;101371.88;5075055;28;20025;-62
2021/10/04 08:51:05;;;;;;;3.72;1.10;;;;;;;21.39;45.57;101375.44;5074411;28;20021;-61
2021/10/04 08:53:31;;;;;;;3.58;1.02;;;;;;;21.66;45.63;101375.84;5074078;28;20124;-62
2021/10/04 08:55:56;;;;;;;2.40;0.90;;;;;;;21.86;44.62;101372.34;5056321;28;20104;-61
2021/10/04 08:58:21;;;;;;;0.93;0.60;;;;;;;22.34;44.68;101379.09;5055758;28;20028;-62
2021/10/04 09:00:47;;;;;;;1.75;0.65;;;;;;;22.75;44.38;101373.06;5074007;28;20020;-62
2021/10/04 09:03:13;;;;;;;3.95;1.17;;;;;;;23.00;43.75;101377.09;5073739;28;20107;-62
2021/10/04 09:05:43;;;;;;;6.45;0.50;;;;;;;23.42;42.93;101377.00;5073862;28;20067;-62
2021/10/04 09:08:15;;;;;;;3.90;0.80;;;;;;;23.68;43.71;101393.59;5073638;28;20022;-62
2021/10/04 09:10:43;;;;;;;3.38;0.68;;;;;;;23.85;42.68;101371.38;5074228;28;20233;-62
2021/10/04 09:13:11;;;;;;;1.45;0.70;;;;;;;24.02;43.37;101380.94;5057889;28;20040;-62
2021/10/04 09:15:42;;;;;;;5.63;0.40;;;;;;;23.96;43.57;101379.88;5073922;28;20036;-62
2021/10/04 09:18:25;;;;;;;5.90;0.82;;;;;;;23.93;43.29;101395.84;5073914;28;20396;-62
2021/10/04 09:20:56;;;;;;;0.73;0.50;;;;;;;24.51;42.59;101387.06;5056319;28;20497;-62
2021/10/04 09:23:44;;;;;;;3.72;0.88;;;;;;;24.88;42.07;101383.81;5073521;28;20024;-61
2021/10/04 09:26:12;;;;;;;2.55;0.50;;;;;;;26.59;39.92;101375.22;5072702;28;20036;-60
2021/10/04 09:28:41;;;;;;;1.15;0.65;;;;;;;28.43;36.15;101373.47;5056040;28;20431;-60
2021/10/04 09:31:20;;;;;;;2.20;0.47;;;;;;;28.11;36.83;101362.66;5073682;28;20031;-60
2021/10/04 09:34:01;;;;;;;1.88;0.52;;;;;;;27.94;37.79;101358.81;5073491;28;20128;-60
2021/10/04 09:36:48;;;;;;;2.72;1.00;;;;;;;28.08;37.20;101357.63;5073968;28;20023;-60
2021/10/04 09:39:19;;;;;;;2.78;0.75;;;;;;;28.42;37.69;101363.53;5073516;28;20115;-61
2021/10/04 09:42:01;;;;;;;4.65;1.17;;;;;;;28.81;36.78;101360.22;5073594;28;20062;-61
2021/10/04 09:44:41;;;;;;;1.63;0.63;;;;;;;29.24;36.67;101366.31;5073547;28;20017;-61
2021/10/04 09:47:13;;;;;;;1.88;0.40;;;;;;;29.59;36.89;101368.25;5073869;28;20036;-61
2021/10/04 09:49:59;;;;;;;2.75;0.55;;;;;;;30.05;35.58;101370.97;5073437;28;20024;-61
2021/10/04 09:52:36;;;;;;;2.65;0.50;;;;;;;30.46;35.38;101369.88;5073228;28;20034;-60
2021/10/04 09:55:12;;;;;;;2.50;0.80;;;;;;;30.73;34.57;101367.38;5073462;28;20047;-61
2021/10/04 09:57:38;;;;;;;5.03;0.50;;;;;;;31.09;34.34;101364.16;5073677;28;20035;-61
2021/10/04 10:00:03;;;;;;;1.40;0.73;;;;;;;31.31;34.35;101358.69;5073241;28;20028;-60
2021/10/04 10:02:30;;;;;;;2.47;0.70;;;;;;;31.38;33.95;101354.66;5073278;28;20415;-60
2021/10/04 10:04:55;;;;;;;4.28;0.70;;;;;;;31.55;33.38;101344.41;5055483;28;20107;-61
2021/10/04 10:07:21;;;;;;;47.45;4.18;;;;;;;31.90;33.64;101348.78;5073203;28;20127;-61
2021/10/04 10:09:46;;;;;;;4.60;0.50;;;;;;;32.24;33.14;101353.97;5075680;28;20035;-61
2021/10/04 10:12:11;;;;;;;0.52;0.30;;;;;;;32.68;32.20;101360.31;5076955;28;20052;-61
2021/10/04 10:14:45;;;;;;;4.45;1.05;;;;;;;32.68;31.71;101360.31;5077306;28;20021;-61
2021/10/04 10:17:30;;;;;;;5.57;0.65;;;;;;;32.91;32.24;101361.91;5077023;28;20534;-60
2021/10/04 10:19:56;;;;;;;1.38;0.50;;;;;;;33.05;31.31;101362.31;5059786;28;20032;-61
2021/10/04 10:22:22;;;;;;;4.68;0.60;;;;;;;32.87;32.48;101359.91;5059608;28;20461;-61
2021/10/04 10:24:49;;;;;;;2.75;0.40;;;;;;;33.26;31.67;101369.72;5078131;28;20044;-62
2021/10/04 10:27:15;;;;;;;4.22;0.70;;;;;;;32.62;31.35;101369.66;5077572;28;20099;-61
2021/10/04 10:29:41;;;;;;;2.42;0.35;;;;;;;32.58;32.13;101370.47;5077804;28;20055;-61
2021/10/04 10:32:16;;;;;;;1.35;0.68;;;;;;;32.49;31.58;101364.50;5077631;28;20050;-61
2021/10/04 10:34:43;;;;;;;3.10;0.75;;;;;;;32.37;32.03;101376.84;5078561;28;20028;-61
2021/10/04 10:37:23;;;;;;;4.32;0.63;;;;;;;32.02;31.58;101374.47;5078469;28;20031;-61
2021/10/04 10:39:54;;;;;;;4.15;0.70;;;;;;;32.14;31.61;101377.94;5077960;28;20522;-61
2021/10/04 10:42:21;;;;;;;3.15;0.50;;;;;;;32.19;31.16;101369.72;5078249;28;20055;-61
2021/10/04 10:44:59;;;;;;;0.57;0.20;;;;;;;32.48;30.68;101368.38;5078143;28;20017;-61
2021/10/04 10:47:37;;;;;;;1.95;0.30;;;;;;;32.88;30.17;101378.25;5077928;28;20028;-61
2021/10/04 10:50:08;;;;;;;4.03;0.60;;;;;;;33.17;30.58;101360.19;5078377;28;20020;-61
2021/10/04 10:52:36;;;;;;;6.53;0.50;;;;;;;33.39;30.49;101360.94;5078248;28;20031;-61
2021/10/04 10:55:23;;;;;;;5.20;1.10;;;;;;;33.35;30.73;101351.47;5078109;28;20047;-61
2021/10/04 10:58:14;;;;;;;5.07;0.57;;;;;;;32.85;30.15;101349.06;5077672;28;20078;-63
2021/10/04 11:00:41;;;;;;;1.53;0.67;;;;;;;33.18;30.96;101350.78;5078026;28;20461;-61
2021/10/04 11:03:13;;;;;;;1.60;0.32;;;;;;;32.89;29.64;101366.06;5077682;28;20020;-61
2021/10/04 11:05:39;;;;;;;;;;;;;;;32.10;31.67;101358.25;5059935;28;20495;-61
2021/10/04 11:08:06;;;;;;;2.43;0.30;;;;;;;32.62;30.95;101358.56;5077051;28;19908;-61
2021/10/04 11:10:33;;;;;;;3.00;0.60;;;;;;;32.93;30.06;101347.75;5059880;28;20029;-61
2021/10/04 11:13:07;;;;;;;2.85;0.32;;;;;;;33.21;29.20;101356.63;5085777;28;20492;-61
2021/10/04 11:15:37;;;;;;;2.13;0.43;;;;;;;33.42;28.65;101346.50;5097780;28;20020;-61
2021/10/04 11:18:04;;;;;;;3.15;0.50;;;;;;;33.31;28.63;101351.16;5098327;28;20030;-61
2021/10/04 11:20:29;;;;;;;3.67;0.85;;;;;;;33.30;30.25;101343.94;5096948;28;20028;-60
2021/10/04 11:23:21;;;;;;;0.60;0.30;;;;;;;33.14;30.31;101344.09;5096868;28;20028;-60